CLT weather

Charlotte Douglas International Airport
Charlotte, North Carolina, United States

Public forecast

Using degrees Fahrenheit for public forecast. Weather courtesy of forecast.io.

METAR (pilot weather report)

Retrieved 2017/03/24 20:52 UTC (1 hour ago):

KCLT 242052Z 23009G14KT 10SM FEW049 SCT100 BKN250 22/07 A3037

TAF (pilot weather forecast)

Forecast is more than 6 hours old.

Retrieved 2017/03/24 12:33 UTC (9 hours ago):

TAF KCLT 241128Z 2412/2512 17005KT P6SM FEW060 FM241300 19006KT P6SM SCT050 FM250300 18004KT P6SM SCT040 BKN150